createdAt,value
2018-05-26T03:01:08.248Z,14.00
2018-05-26T03:02:09.001Z,14.08
2018-05-26T03:03:08.439Z,14.04
2018-05-26T03:04:08.560Z,14.08
2018-05-26T03:05:08.738Z,14.07
2018-05-26T03:06:08.841Z,14.14
2018-05-26T03:07:09.009Z,14.10
2018-05-26T03:08:09.175Z,14.08
2018-05-26T03:09:09.285Z,14.11
2018-05-26T03:10:09.473Z,14.10
2018-05-26T03:11:09.696Z,14.03
2018-05-26T03:12:09.880Z,14.05
2018-05-26T03:13:09.942Z,14.12
2018-05-26T03:14:10.149Z,14.11
2018-05-26T03:15:10.290Z,14.14
2018-05-26T03:16:10.464Z,14.15
2018-05-26T03:17:10.676Z,14.07
2018-05-26T03:18:10.896Z,14.12
2018-05-26T03:19:10.993Z,14.03
2018-05-26T03:20:11.251Z,14.00
2018-05-26T03:21:11.281Z,13.92
2018-05-26T03:22:11.443Z,13.93
2018-05-26T03:23:11.654Z,13.99
2018-05-26T03:24:11.829Z,13.90
2018-05-26T03:25:12.022Z,13.90
2018-05-26T03:26:12.168Z,13.86
2018-05-26T03:27:12.293Z,13.92
2018-05-26T03:28:12.479Z,13.93
2018-05-26T03:29:12.606Z,13.95
2018-05-26T03:30:12.790Z,13.90
2018-05-26T03:31:12.924Z,13.97
2018-05-26T03:32:13.158Z,13.93
2018-05-26T03:33:13.320Z,13.97
2018-05-26T03:34:13.454Z,13.86
2018-05-26T03:35:13.670Z,13.81
2018-05-26T03:36:13.833Z,13.81
2018-05-26T03:37:14.050Z,13.68
2018-05-26T03:38:14.183Z,13.72
2018-05-26T03:39:14.384Z,13.72
2018-05-26T03:40:14.501Z,13.68
2018-05-26T03:41:14.639Z,13.70
2018-05-26T03:42:14.812Z,13.65
2018-05-26T03:43:14.957Z,13.57
2018-05-26T03:44:15.148Z,13.57
2018-05-26T03:45:15.308Z,13.54
2018-05-26T03:46:15.419Z,13.50
2018-05-26T03:47:15.640Z,13.50
2018-05-26T03:48:15.835Z,13.47
2018-05-26T03:49:15.988Z,13.53
2018-05-26T03:50:16.121Z,13.39
2018-05-26T03:51:16.247Z,13.31
2018-05-26T03:52:16.425Z,13.47
2018-05-26T03:53:16.612Z,13.47
2018-05-26T03:54:16.778Z,13.47
2018-05-26T03:55:16.958Z,13.54
2018-05-26T03:56:17.076Z,13.53
2018-05-26T03:57:17.271Z,13.57
2018-05-26T03:58:17.465Z,13.56
2018-05-26T03:59:17.582Z,13.63
2018-05-26T04:00:17.798Z,13.67
2018-05-26T04:01:18.027Z,13.70
2018-05-26T04:02:18.127Z,13.77
2018-05-26T04:03:18.364Z,13.81
2018-05-26T04:04:18.484Z,13.81
2018-05-26T04:05:19.711Z,13.85
2018-05-26T04:06:18.757Z,13.95
2018-05-26T04:07:18.887Z,13.96
2018-05-26T04:08:19.095Z,13.93
2018-05-26T04:09:19.310Z,13.93
2018-05-26T04:10:19.381Z,14.00
2018-05-26T04:11:19.627Z,13.99
2018-05-26T04:12:19.827Z,14.03
2018-05-26T04:13:19.956Z,14.10
2018-05-26T04:14:20.197Z,14.14
2018-05-26T04:15:20.220Z,14.10
2018-05-26T04:16:20.454Z,14.20
2018-05-26T04:17:20.624Z,14.20
2018-05-26T04:18:20.787Z,14.22
2018-05-26T04:19:20.942Z,14.25
2018-05-26T04:20:21.155Z,14.17
2018-05-26T04:21:21.307Z,14.17
2018-05-26T04:22:21.437Z,14.18
2018-05-26T04:23:21.603Z,14.23
2018-05-26T04:24:21.809Z,14.17
2018-05-26T04:25:21.971Z,14.14
2018-05-26T04:26:22.097Z,14.08
2018-05-26T04:27:22.220Z,14.14
2018-05-26T04:28:22.496Z,13.97
2018-05-26T04:29:22.627Z,14.07
2018-05-26T04:30:22.803Z,14.00
2018-05-26T04:31:22.975Z,13.93
2018-05-26T04:32:23.100Z,14.00
2018-05-26T04:33:23.274Z,13.92
2018-05-26T04:34:23.376Z,13.90
2018-05-26T04:35:23.609Z,13.86
2018-05-26T04:36:23.754Z,13.83
2018-05-26T04:37:23.939Z,13.89
2018-05-26T04:38:24.041Z,13.83
2018-05-26T04:39:24.225Z,13.86
2018-05-26T04:40:24.435Z,13.87
2018-05-26T04:41:24.559Z,13.83
2018-05-26T04:42:24.780Z,13.95
2018-05-26T04:43:24.933Z,13.96
2018-05-26T04:44:25.036Z,14.10
2018-05-26T04:45:25.246Z,14.08
2018-05-26T04:46:25.410Z,14.14
2018-05-26T04:47:25.583Z,14.15
2018-05-26T04:48:25.722Z,14.22
2018-05-26T04:49:25.940Z,14.29
2018-05-26T04:50:26.042Z,14.26
2018-05-26T04:51:26.191Z,14.28
2018-05-26T04:52:26.452Z,14.35
2018-05-26T04:53:26.615Z,14.35
2018-05-26T04:54:26.762Z,14.50
2018-05-26T04:55:26.921Z,14.44
2018-05-26T04:56:27.022Z,14.54
2018-05-26T04:57:27.299Z,14.51
2018-05-26T04:58:27.388Z,14.53
2018-05-26T04:59:27.575Z,14.63
2018-05-26T05:00:27.768Z,14.54
2018-05-26T05:01:27.870Z,14.68
2018-05-26T05:02:28.064Z,14.66
2018-05-26T05:03:28.175Z,14.66
2018-05-26T05:04:28.381Z,14.65
2018-05-26T05:05:28.485Z,14.62
2018-05-26T05:06:28.690Z,14.70
2018-05-26T05:07:28.838Z,14.68
2018-05-26T05:08:29.039Z,14.62
2018-05-26T05:09:29.148Z,14.70
2018-05-26T05:10:29.356Z,14.73
2018-05-26T05:11:29.474Z,14.78
2018-05-26T05:12:29.705Z,14.70
2018-05-26T05:13:29.869Z,14.84
2018-05-26T05:14:30.040Z,14.88
2018-05-26T05:15:30.154Z,14.85
2018-05-26T05:16:30.434Z,14.85
2018-05-26T05:17:30.608Z,15.00
2018-05-26T05:18:30.837Z,15.06
2018-05-26T05:19:30.858Z,15.04
2018-05-26T05:20:30.978Z,15.06
2018-05-26T05:21:31.169Z,15.22
2018-05-26T05:22:31.287Z,15.15
2018-05-26T05:23:31.474Z,15.24
2018-05-26T05:24:31.697Z,15.19
2018-05-26T05:25:31.802Z,15.29
2018-05-26T05:26:31.926Z,15.39
2018-05-26T05:27:32.120Z,15.43
2018-05-26T05:28:32.317Z,15.57
2018-05-26T05:29:32.502Z,15.52
2018-05-26T05:30:32.586Z,15.64
2018-05-26T05:31:32.842Z,15.61
2018-05-26T05:32:32.963Z,15.62
2018-05-26T05:33:33.067Z,15.73
2018-05-26T05:34:33.347Z,15.75
2018-05-26T05:35:33.374Z,15.82
2018-05-26T05:36:33.593Z,15.94
2018-05-26T05:37:33.870Z,15.95
2018-05-26T05:38:33.927Z,15.91
2018-05-26T05:39:34.129Z,16.08
2018-05-26T05:40:34.302Z,16.15
2018-05-26T05:41:34.449Z,16.23
2018-05-26T05:42:34.592Z,16.28
2018-05-26T05:43:34.752Z,16.32
2018-05-26T05:44:34.900Z,16.43
2018-05-26T05:45:35.113Z,16.50
2018-05-26T05:46:35.272Z,16.57
2018-05-26T05:47:35.350Z,16.76
2018-05-26T05:48:35.583Z,16.78
2018-05-26T05:49:35.745Z,16.86
2018-05-26T05:50:35.920Z,16.97
2018-05-26T05:51:36.048Z,17.02
2018-05-26T05:52:36.200Z,17.09
2018-05-26T05:53:36.404Z,17.04
2018-05-26T05:54:36.618Z,17.06
2018-05-26T05:55:36.722Z,17.16
2018-05-26T05:56:36.868Z,17.20
2018-05-26T05:57:37.078Z,17.24
2018-05-26T05:58:37.249Z,17.33
2018-05-26T05:59:37.372Z,17.46
2018-05-26T06:00:37.602Z,17.54
2018-05-26T06:01:37.789Z,17.59
2018-05-26T06:02:38.029Z,17.60
2018-05-26T06:03:38.109Z,17.65
2018-05-26T06:04:38.278Z,17.68
2018-05-26T06:05:38.458Z,17.79
2018-05-26T06:06:38.608Z,17.79
2018-05-26T06:07:38.757Z,17.89
2018-05-26T06:08:38.938Z,17.90
2018-05-26T06:09:39.069Z,17.95
2018-05-26T06:10:39.290Z,18.07
2018-05-26T06:11:39.416Z,18.11
2018-05-26T06:12:39.579Z,18.20
2018-05-26T06:13:39.731Z,18.19
2018-05-26T06:14:39.878Z,18.29
2018-05-26T06:15:40.104Z,18.25
2018-05-26T06:16:40.255Z,18.29
2018-05-26T06:17:40.435Z,18.38
2018-05-26T06:18:40.480Z,18.50
2018-05-26T06:19:40.737Z,18.58
2018-05-26T06:20:40.893Z,18.66
2018-05-26T06:21:41.072Z,18.60
2018-05-26T06:22:41.222Z,18.70
2018-05-26T06:23:41.372Z,18.81
2018-05-26T06:24:41.519Z,18.90
2018-05-26T06:25:41.671Z,19.02
2018-05-26T06:26:41.909Z,19.00
2018-05-26T06:27:42.059Z,18.96
2018-05-26T06:28:42.227Z,18.98
2018-05-26T06:29:42.302Z,19.07
2018-05-26T06:30:42.531Z,19.08
2018-05-26T06:31:42.648Z,19.11
2018-05-26T06:32:42.863Z,19.11
2018-05-26T06:33:43.103Z,19.12
2018-05-26T06:34:43.230Z,19.29
2018-05-26T06:35:43.422Z,19.31
2018-05-26T06:36:43.558Z,19.33
2018-05-26T06:37:43.802Z,19.37
2018-05-26T06:38:43.883Z,19.44
2018-05-26T06:39:44.095Z,19.49
2018-05-26T06:40:44.256Z,19.63
2018-05-26T06:41:44.389Z,19.76
2018-05-26T06:42:44.585Z,19.82
2018-05-26T06:43:44.709Z,19.73
2018-05-26T06:44:44.918Z,19.79
2018-05-26T06:45:45.092Z,19.85
2018-05-26T06:46:45.287Z,19.88
2018-05-26T06:47:45.386Z,20.06
2018-05-26T06:48:45.643Z,20.07
2018-05-26T06:49:45.748Z,20.21
2018-05-26T06:50:46.019Z,20.37
2018-05-26T06:51:46.186Z,20.32
2018-05-26T06:52:46.285Z,20.39
2018-05-26T06:53:46.494Z,20.40
2018-05-26T06:54:46.725Z,20.62
2018-05-26T06:55:46.895Z,20.63
2018-05-26T06:56:46.990Z,20.67
2018-05-26T06:57:47.183Z,20.66
2018-05-26T06:58:47.311Z,20.82
2018-05-26T06:59:47.470Z,20.75
2018-05-26T07:00:47.698Z,20.75
2018-05-26T07:01:47.818Z,20.85
2018-05-26T07:02:48.017Z,20.74
2018-05-26T07:03:48.186Z,21.02
2018-05-26T07:04:48.266Z,20.96
2018-05-26T07:05:48.435Z,21.09
2018-05-26T07:06:48.660Z,21.22
2018-05-26T07:07:48.853Z,21.36
2018-05-26T07:08:49.049Z,21.37
2018-05-26T07:09:49.164Z,21.42
2018-05-26T07:10:49.320Z,21.57
2018-05-26T07:11:49.491Z,21.55
2018-05-26T07:12:49.641Z,21.55
2018-05-26T07:13:49.816Z,21.77
2018-05-26T07:14:50.029Z,21.77
2018-05-26T07:15:50.222Z,21.93
2018-05-26T07:16:50.427Z,21.76
2018-05-26T07:17:50.574Z,21.98
2018-05-26T07:18:50.637Z,22.11
2018-05-26T07:19:50.826Z,22.18
2018-05-26T07:20:51.018Z,22.20
2018-05-26T07:21:51.166Z,22.28
2018-05-26T07:22:51.435Z,22.26
2018-05-26T07:23:51.534Z,22.38
2018-05-26T07:24:51.743Z,22.47
2018-05-26T07:25:51.892Z,22.55
2018-05-26T07:26:52.039Z,22.53
2018-05-26T07:27:52.365Z,22.41
2018-05-26T07:28:52.399Z,22.48
2018-05-26T07:29:52.593Z,22.44
2018-05-26T07:30:52.787Z,22.62
2018-05-26T07:31:52.961Z,22.68
2018-05-26T07:32:53.090Z,22.75
2018-05-26T07:33:53.217Z,22.96
2018-05-26T07:34:53.427Z,22.94
2018-05-26T07:35:53.561Z,23.08
2018-05-26T07:36:53.750Z,23.15
2018-05-26T07:37:53.914Z,23.24
2018-05-26T07:38:54.129Z,23.36
2018-05-26T07:39:54.276Z,23.43
2018-05-26T07:40:54.448Z,23.55
2018-05-26T07:41:54.701Z,23.55
2018-05-26T07:42:54.750Z,23.55
2018-05-26T07:43:55.032Z,23.51
2018-05-26T07:44:55.088Z,23.58
2018-05-26T07:45:55.343Z,23.59
2018-05-26T07:46:55.418Z,23.66
2018-05-26T07:47:55.620Z,23.71
2018-05-26T07:48:55.817Z,23.69
2018-05-26T07:49:56.020Z,23.77
2018-05-26T07:50:56.237Z,23.84
2018-05-26T07:51:56.311Z,23.93
2018-05-26T07:52:56.528Z,24.10
2018-05-26T07:53:56.638Z,24.11
2018-05-26T07:54:56.820Z,24.32
2018-05-26T07:55:57.045Z,24.42
2018-05-26T07:56:57.261Z,24.63
2018-05-26T07:57:57.334Z,24.63
2018-05-26T07:58:57.603Z,24.47
2018-05-26T07:59:57.730Z,24.63
2018-05-26T08:00:58.543Z,24.69
2018-05-26T08:01:58.136Z,24.66
2018-05-26T08:02:58.234Z,24.78
2018-05-26T08:03:58.355Z,24.92
2018-05-26T08:04:58.556Z,25.13
2018-05-26T08:05:58.706Z,25.21
2018-05-26T08:06:58.975Z,25.41
2018-05-26T08:07:59.087Z,25.55
2018-05-26T08:08:59.215Z,25.78
2018-05-26T08:09:59.413Z,26.03
2018-05-26T08:10:59.628Z,26.28
2018-05-26T08:11:59.726Z,26.59
2018-05-26T08:12:59.952Z,27.05
2018-05-26T08:14:00.086Z,27.20
2018-05-26T08:15:00.231Z,27.60
2018-05-26T08:16:00.396Z,27.85
2018-05-26T08:17:00.561Z,28.07
2018-05-26T08:18:00.722Z,28.37
2018-05-26T08:19:00.926Z,28.67
2018-05-26T08:20:01.155Z,28.76
2018-05-26T08:21:01.258Z,28.84
2018-05-26T08:22:01.523Z,29.22
2018-05-26T08:23:01.623Z,29.20
2018-05-26T08:24:01.768Z,28.93
2018-05-26T08:25:01.969Z,28.75
2018-05-26T08:26:02.101Z,28.89
2018-05-26T08:27:02.232Z,29.08
2018-05-26T08:28:02.454Z,28.98
2018-05-26T08:29:02.611Z,29.22
2018-05-26T08:30:02.769Z,29.31
2018-05-26T08:31:03.025Z,29.44
2018-05-26T08:32:03.165Z,29.65
2018-05-26T08:33:03.353Z,29.87
2018-05-26T08:34:03.481Z,29.79
2018-05-26T08:35:03.614Z,29.81
2018-05-26T08:36:03.799Z,29.63
2018-05-26T08:37:04.018Z,29.60
2018-05-26T08:38:04.186Z,29.95
2018-05-26T08:39:04.368Z,29.91
2018-05-26T08:40:04.560Z,29.91
2018-05-26T08:41:04.760Z,29.88
2018-05-26T08:42:04.936Z,29.94
2018-05-26T08:43:05.051Z,29.93
2018-05-26T08:44:05.245Z,29.50
2018-05-26T08:45:05.434Z,29.39
2018-05-26T08:46:05.544Z,29.29
2018-05-26T08:47:05.775Z,29.12
2018-05-26T08:48:05.864Z,28.89
2018-05-26T08:49:06.051Z,28.75
2018-05-26T08:50:06.247Z,28.52
2018-05-26T08:51:06.361Z,28.45
2018-05-26T08:52:06.626Z,28.37
2018-05-26T08:53:06.815Z,28.11
2018-05-26T08:54:06.977Z,28.17
2018-05-26T08:55:07.095Z,28.04
2018-05-26T08:56:07.223Z,27.78
2018-05-26T08:57:07.445Z,27.86
2018-05-26T08:58:07.599Z,27.74
2018-05-26T08:59:07.753Z,27.64
2018-05-26T09:00:07.981Z,27.75
2018-05-26T09:01:08.101Z,27.80
2018-05-26T09:02:08.283Z,27.77
2018-05-26T09:03:08.447Z,27.78
2018-05-26T09:04:08.589Z,27.71
2018-05-26T09:05:08.818Z,27.75
2018-05-26T09:06:08.915Z,27.82
2018-05-26T09:07:09.131Z,27.82
2018-05-26T09:08:09.252Z,27.83
2018-05-26T09:09:09.426Z,27.77
2018-05-26T09:10:09.641Z,27.93
2018-05-26T09:11:09.836Z,27.87
2018-05-26T09:12:09.980Z,27.86
2018-05-26T09:13:10.096Z,27.96
2018-05-26T09:14:10.299Z,28.00
2018-05-26T09:15:10.543Z,28.10
2018-05-26T09:16:10.657Z,28.23
2018-05-26T09:17:10.820Z,28.27
2018-05-26T09:18:10.984Z,28.26
2018-05-26T09:19:11.163Z,28.37
2018-05-26T09:20:11.360Z,28.30
2018-05-26T09:21:11.495Z,28.29
2018-05-26T09:22:11.684Z,28.10
2018-05-26T09:23:11.817Z,28.27
2018-05-26T09:24:12.030Z,28.41
2018-05-26T09:25:12.260Z,28.39
2018-05-26T09:26:12.383Z,28.25
2018-05-26T09:27:12.543Z,28.41
2018-05-26T09:28:12.731Z,28.27
2018-05-26T09:29:12.893Z,28.22
2018-05-26T09:30:13.058Z,28.11
2018-05-26T09:31:13.234Z,28.26
2018-05-26T09:32:13.386Z,28.26
2018-05-26T09:33:13.525Z,28.30
2018-05-26T09:34:13.772Z,28.08
2018-05-26T09:35:13.882Z,28.11
2018-05-26T09:36:14.113Z,28.22
2018-05-26T09:37:14.243Z,28.10
2018-05-26T09:38:14.458Z,28.11
2018-05-26T09:39:14.586Z,28.25
2018-05-26T09:40:14.708Z,28.23
2018-05-26T09:41:14.970Z,28.27
2018-05-26T09:42:15.107Z,28.47
2018-05-26T09:43:15.234Z,28.56
2018-05-26T09:44:15.437Z,28.63
2018-05-26T09:45:15.627Z,28.57
2018-05-26T09:46:15.859Z,28.57
2018-05-26T09:47:16.001Z,28.59
2018-05-26T09:48:16.238Z,28.81
2018-05-26T09:49:16.351Z,28.86
2018-05-26T09:50:16.469Z,29.14
2018-05-26T09:51:16.666Z,29.32
2018-05-26T09:52:16.930Z,29.42
2018-05-26T09:53:17.056Z,29.47
2018-05-26T09:54:17.150Z,29.76
2018-05-26T09:55:17.343Z,29.93
2018-05-26T09:56:17.605Z,30.10
2018-05-26T09:57:17.684Z,30.06
2018-05-26T09:58:17.862Z,30.46
2018-05-26T09:59:18.715Z,30.91
2018-05-26T10:00:18.205Z,31.12
2018-05-26T10:01:18.412Z,31.39
2018-05-26T10:02:18.612Z,31.78
2018-05-26T10:03:18.751Z,31.96
2018-05-26T10:04:19.041Z,32.18
2018-05-26T10:05:19.148Z,32.16
2018-05-26T10:06:19.283Z,32.21
2018-05-26T10:07:19.454Z,32.33
2018-05-26T10:08:19.691Z,32.33
2018-05-26T10:09:19.782Z,32.58
2018-05-26T10:10:19.964Z,32.65
2018-05-26T10:11:20.175Z,32.56
2018-05-26T10:12:20.376Z,32.92
2018-05-26T10:13:20.482Z,33.02
2018-05-26T10:14:20.695Z,33.23
2018-05-26T10:15:20.928Z,33.43
2018-05-26T10:16:21.066Z,33.53
2018-05-26T10:17:21.195Z,33.95
2018-05-26T10:18:21.454Z,33.79
2018-05-26T10:19:21.638Z,33.40
2018-05-26T10:20:21.726Z,33.79
2018-05-26T10:21:21.986Z,34.06
2018-05-26T10:22:22.163Z,34.16
2018-05-26T10:23:22.353Z,34.18
2018-05-26T10:24:22.474Z,34.27
2018-05-26T10:25:22.664Z,34.02
2018-05-26T10:26:22.889Z,34.16
2018-05-26T10:27:22.982Z,34.16
2018-05-26T10:28:23.144Z,34.11
2018-05-26T10:29:23.363Z,34.17
2018-05-26T10:30:23.518Z,34.05
2018-05-26T10:31:23.700Z,34.21
2018-05-26T10:32:23.928Z,34.60
2018-05-26T10:33:24.027Z,34.88
2018-05-26T10:34:24.181Z,34.89
2018-05-26T10:35:24.347Z,35.12
2018-05-26T10:36:24.488Z,35.39
2018-05-26T10:37:24.755Z,35.74
2018-05-26T10:38:24.888Z,35.56
2018-05-26T10:39:25.116Z,35.93
2018-05-26T10:40:25.272Z,35.88
2018-05-26T10:41:25.394Z,35.93
2018-05-26T10:42:25.616Z,36.24
2018-05-26T10:43:25.821Z,36.05
2018-05-26T10:44:25.967Z,36.27
2018-05-26T10:45:26.183Z,36.39
2018-05-26T10:46:26.383Z,35.95
2018-05-26T10:47:26.624Z,36.08
2018-05-26T10:48:26.819Z,36.17
2018-05-26T10:49:26.974Z,36.47
2018-05-26T10:50:27.135Z,36.04
2018-05-26T10:51:27.378Z,36.18
2018-05-26T10:52:27.510Z,36.23
2018-05-26T10:53:27.733Z,36.08
2018-05-26T10:54:27.856Z,36.36
2018-05-26T10:55:28.062Z,36.58
2018-05-26T10:56:28.258Z,37.03
2018-05-26T10:57:28.463Z,36.73
2018-05-26T10:58:28.585Z,36.91
2018-05-26T10:59:28.824Z,36.72
2018-05-26T11:00:29.056Z,35.78
2018-05-26T11:01:29.135Z,35.14
2018-05-26T11:02:29.314Z,34.33
2018-05-26T11:03:29.509Z,33.68
2018-05-26T11:04:29.806Z,34.01
2018-05-26T11:05:29.863Z,34.55
2018-05-26T11:06:30.058Z,34.74
2018-05-26T11:07:30.285Z,33.76
2018-05-26T11:08:30.414Z,32.87
2018-05-26T11:09:30.669Z,32.37
2018-05-26T11:10:30.901Z,32.34
2018-05-26T11:11:30.976Z,32.40
2018-05-26T11:12:31.132Z,32.86
2018-05-26T11:13:31.340Z,33.49
2018-05-26T11:14:31.529Z,33.98
2018-05-26T11:15:31.619Z,34.18
2018-05-26T11:16:31.770Z,34.58
2018-05-26T11:17:32.025Z,34.83
2018-05-26T11:18:32.233Z,35.26
2018-05-26T11:19:32.313Z,35.63
2018-05-26T11:20:32.494Z,35.48
2018-05-26T11:21:32.715Z,34.88
2018-05-26T11:22:32.890Z,33.98
2018-05-26T11:23:33.132Z,33.22
2018-05-26T11:24:33.292Z,32.77
2018-05-26T11:25:33.417Z,32.00
2018-05-26T11:26:33.657Z,31.70
2018-05-26T11:27:33.701Z,31.37
2018-05-26T11:28:33.927Z,31.93
2018-05-26T11:29:34.099Z,32.30
2018-05-26T11:30:34.326Z,32.22
2018-05-26T11:31:34.457Z,32.86
2018-05-26T11:32:34.581Z,33.40
2018-05-26T11:33:34.898Z,33.69
2018-05-26T11:34:34.978Z,34.06
2018-05-26T11:35:35.125Z,34.35
2018-05-26T11:36:35.278Z,34.77
2018-05-26T11:37:35.527Z,35.33
2018-05-26T11:38:35.620Z,35.86
2018-05-26T11:39:35.826Z,35.93
2018-05-26T11:40:35.980Z,36.39
2018-05-26T11:41:36.245Z,36.39
2018-05-26T11:42:36.330Z,36.59
2018-05-26T11:43:36.576Z,35.79
2018-05-26T11:44:36.777Z,35.33
2018-05-26T11:45:36.906Z,35.58
2018-05-26T11:46:37.057Z,35.85
2018-05-26T11:47:37.271Z,35.97
2018-05-26T11:48:37.456Z,36.35
2018-05-26T11:49:37.599Z,36.70
2018-05-26T11:50:37.805Z,36.91
2018-05-26T11:51:37.979Z,36.92
2018-05-26T11:52:38.232Z,36.08
2018-05-26T11:53:38.401Z,35.26
2018-05-26T11:54:38.500Z,34.57
2018-05-26T11:55:38.730Z,33.83
2018-05-26T11:56:38.917Z,33.15
2018-05-26T11:57:39.074Z,32.73
2018-05-26T11:58:39.293Z,32.26
2018-05-26T11:59:39.410Z,32.15
2018-05-26T12:00:39.581Z,32.58
2018-05-26T12:01:39.735Z,32.23
2018-05-26T12:02:39.994Z,31.76
2018-05-26T12:03:40.118Z,31.89
2018-05-26T12:04:40.329Z,32.77
2018-05-26T12:05:40.468Z,33.49
2018-05-26T12:06:40.640Z,34.21
2018-05-26T12:07:40.907Z,34.83
2018-05-26T12:08:41.082Z,35.31
2018-05-26T12:09:41.222Z,35.70
2018-05-26T12:10:41.327Z,35.83
2018-05-26T12:11:41.548Z,36.18
2018-05-26T12:12:41.759Z,36.55
2018-05-26T12:13:41.880Z,36.86
2018-05-26T12:14:42.032Z,37.11
2018-05-26T12:15:42.237Z,36.92
2018-05-26T12:16:42.407Z,37.17
2018-05-26T12:17:42.572Z,37.30
2018-05-26T12:18:42.801Z,37.60
2018-05-26T12:19:42.978Z,37.56
2018-05-26T12:20:43.102Z,37.51
2018-05-26T12:21:43.321Z,37.42
2018-05-26T12:22:43.511Z,37.59
2018-05-26T12:23:43.674Z,37.58
2018-05-26T12:24:43.860Z,37.56
2018-05-26T12:25:44.047Z,37.68
2018-05-26T12:26:44.221Z,37.15
2018-05-26T12:27:44.362Z,37.29
2018-05-26T12:28:44.560Z,37.35
2018-05-26T12:29:44.763Z,37.70
2018-05-26T12:30:44.879Z,37.84
2018-05-26T12:31:45.100Z,38.01
2018-05-26T12:32:45.296Z,37.96
2018-05-26T12:33:45.427Z,38.20
2018-05-26T12:34:45.642Z,38.23
2018-05-26T12:35:45.803Z,38.38
2018-05-26T12:36:46.002Z,38.31
2018-05-26T12:37:46.265Z,38.17
2018-05-26T12:38:47.224Z,38.45
2018-05-26T12:39:46.524Z,38.26
2018-05-26T12:40:46.706Z,38.04
2018-05-26T12:41:46.875Z,37.89
2018-05-26T12:42:47.110Z,38.21
2018-05-26T12:43:47.199Z,38.40
2018-05-26T12:44:47.394Z,38.38
2018-05-26T12:45:47.638Z,38.62
2018-05-26T12:46:47.751Z,38.71
2018-05-26T12:47:48.042Z,38.99
2018-05-26T12:48:48.233Z,38.55
2018-05-26T12:49:48.451Z,38.64
2018-05-26T12:50:48.603Z,38.96
2018-05-26T12:51:48.766Z,38.91
2018-05-26T12:52:48.897Z,39.11
2018-05-26T12:53:49.090Z,38.67
2018-05-26T12:54:49.259Z,38.04
2018-05-26T12:55:49.433Z,37.89
2018-05-26T12:56:49.580Z,37.90
2018-05-26T12:57:49.776Z,38.04
2018-05-26T12:58:49.981Z,37.96
2018-05-26T12:59:50.198Z,37.94
2018-05-26T13:00:50.331Z,37.92
2018-05-26T13:01:50.541Z,38.12
2018-05-26T13:02:50.810Z,38.55
2018-05-26T13:03:51.009Z,38.43
2018-05-26T13:04:51.153Z,38.46
2018-05-26T13:05:51.324Z,38.21
2018-05-26T13:06:51.449Z,37.90
2018-05-26T13:07:51.691Z,37.90
2018-05-26T13:08:51.901Z,37.90
2018-05-26T13:09:52.029Z,38.17
2018-05-26T13:10:52.282Z,38.34
2018-05-26T13:11:52.455Z,38.61
2018-05-26T13:12:52.626Z,38.64
2018-05-26T13:13:52.846Z,38.46
2018-05-26T13:14:53.000Z,38.15
2018-05-26T13:15:53.153Z,37.93
2018-05-26T13:16:53.363Z,38.14
2018-05-26T13:17:53.534Z,38.30
2018-05-26T13:18:53.656Z,38.48
2018-05-26T13:19:53.930Z,38.54
2018-05-26T13:20:54.047Z,38.46
2018-05-26T13:21:54.234Z,38.52
2018-05-26T13:22:54.439Z,38.49
2018-05-26T13:23:54.703Z,38.30
2018-05-26T13:24:54.834Z,38.23
2018-05-26T13:25:55.065Z,37.82
2018-05-26T13:26:55.166Z,37.96
2018-05-26T13:27:55.343Z,37.67
2018-05-26T13:28:55.531Z,37.94
2018-05-26T13:29:55.679Z,37.83
2018-05-26T13:30:55.907Z,37.75
2018-05-26T13:31:56.039Z,37.74
2018-05-26T13:32:56.238Z,37.74
2018-05-26T13:33:56.389Z,37.68
2018-05-26T13:34:56.705Z,37.94
2018-05-26T13:35:56.845Z,38.36
2018-05-26T13:36:56.951Z,38.52
2018-05-26T13:37:57.131Z,38.61
2018-05-26T13:38:57.411Z,38.62
2018-05-26T13:39:57.550Z,38.69
2018-05-26T13:40:57.802Z,38.96
2018-05-26T13:41:57.919Z,39.04
2018-05-26T13:42:58.122Z,38.86
2018-05-26T13:43:58.272Z,38.99
2018-05-26T13:44:58.408Z,38.67
2018-05-26T13:45:58.595Z,38.57
2018-05-26T13:46:58.810Z,38.65
2018-05-26T13:47:58.932Z,38.31
2018-05-26T13:48:59.150Z,38.49
2018-05-26T13:49:59.387Z,38.49
2018-05-26T13:50:59.534Z,38.17
2018-05-26T13:51:59.736Z,37.96
2018-05-26T13:53:00.333Z,37.70
2018-05-26T13:54:00.316Z,37.71
2018-05-26T13:55:00.274Z,37.65
2018-05-26T13:56:00.496Z,37.90
2018-05-26T13:57:00.664Z,38.02
2018-05-26T13:58:00.924Z,37.82
2018-05-26T13:59:01.038Z,38.24
2018-05-26T14:00:01.162Z,38.50
2018-05-26T14:01:01.318Z,38.27
2018-05-26T14:02:01.587Z,38.39
2018-05-26T14:03:01.699Z,38.28
2018-05-26T14:04:01.931Z,38.21
2018-05-26T14:05:02.091Z,38.12
2018-05-26T14:06:02.210Z,38.27
2018-05-26T14:07:02.428Z,38.31
2018-05-26T14:08:02.578Z,38.34
2018-05-26T14:09:02.767Z,38.40
2018-05-26T14:10:02.977Z,38.49
2018-05-26T14:11:03.121Z,38.65
2018-05-26T14:12:03.255Z,38.65
2018-05-26T14:13:03.514Z,37.86
2018-05-26T14:14:03.616Z,37.86
2018-05-26T14:15:03.853Z,37.77
2018-05-26T14:16:03.993Z,37.92
2018-05-26T14:17:04.208Z,38.14
2018-05-26T14:18:04.312Z,38.33
2018-05-26T14:19:04.523Z,38.21
2018-05-26T14:20:04.713Z,38.26
2018-05-26T14:21:04.859Z,37.14
2018-05-26T14:22:05.040Z,37.33
2018-05-26T14:23:05.220Z,37.59
2018-05-26T14:24:05.410Z,37.55
2018-05-26T14:25:05.659Z,37.86
2018-05-26T14:26:05.802Z,38.05
2018-05-26T14:27:06.049Z,38.20
2018-05-26T14:28:06.147Z,37.67
2018-05-26T14:29:06.290Z,38.08
2018-05-26T14:30:06.501Z,37.97
2018-05-26T14:31:06.704Z,38.21
2018-05-26T14:32:06.932Z,38.33
2018-05-26T14:33:07.078Z,38.23
2018-05-26T14:34:07.296Z,38.02
2018-05-26T14:35:07.429Z,38.08
2018-05-26T14:36:07.572Z,37.72
2018-05-26T14:37:07.827Z,37.80
2018-05-26T14:38:08.010Z,37.77
2018-05-26T14:39:08.161Z,37.64
2018-05-26T14:40:08.357Z,37.86
2018-05-26T14:41:08.491Z,37.65
2018-05-26T14:42:08.730Z,37.83
2018-05-26T14:43:08.881Z,37.13
2018-05-26T14:44:09.053Z,36.47
2018-05-26T14:45:09.285Z,36.92
2018-05-26T14:46:09.442Z,36.89
2018-05-26T14:47:09.584Z,36.92
2018-05-26T14:48:09.780Z,37.01
2018-05-26T14:49:09.910Z,36.88
2018-05-26T14:50:10.159Z,36.91
2018-05-26T14:51:10.414Z,37.07
2018-05-26T14:52:10.585Z,36.59
2018-05-26T14:53:10.815Z,35.79
2018-05-26T14:54:10.919Z,35.23
2018-05-26T14:55:11.104Z,34.75
2018-05-26T14:56:11.238Z,34.03
2018-05-26T14:57:11.496Z,33.59
2018-05-26T14:58:11.664Z,33.23
2018-05-26T14:59:11.788Z,33.45
2018-05-26T15:00:12.056Z,33.24
2018-05-26T15:01:12.196Z,32.78
2018-05-26T15:02:12.315Z,32.49
2018-05-26T15:03:12.535Z,32.15
2018-05-26T15:04:12.735Z,31.81
2018-05-26T15:05:12.965Z,31.49
2018-05-26T15:06:13.047Z,31.36
2018-05-26T15:07:13.209Z,31.07
2018-05-26T15:08:13.357Z,30.87
2018-05-26T15:09:13.553Z,30.62
2018-05-26T15:10:13.774Z,30.57
2018-05-26T15:11:13.996Z,30.32
2018-05-26T15:12:14.119Z,30.21
2018-05-26T15:13:14.297Z,30.09
2018-05-26T15:14:14.512Z,29.76
2018-05-26T15:15:14.672Z,29.78
2018-05-26T15:16:14.817Z,29.88
2018-05-26T15:17:14.959Z,29.81
2018-05-26T15:18:15.147Z,29.75
2018-05-26T15:19:15.367Z,29.76
2018-05-26T15:20:15.580Z,29.79
2018-05-26T15:21:15.706Z,29.59
2018-05-26T15:22:15.902Z,29.75
2018-05-26T15:23:16.078Z,30.03
2018-05-26T15:24:16.200Z,29.88
2018-05-26T15:25:16.427Z,29.88
2018-05-26T15:26:16.580Z,30.00
2018-05-26T15:27:16.759Z,30.09
2018-05-26T15:28:16.983Z,30.15
2018-05-26T15:29:17.133Z,30.28
2018-05-26T15:30:17.264Z,30.34
2018-05-26T15:31:17.484Z,30.63
2018-05-26T15:32:17.626Z,31.29
2018-05-26T15:33:17.838Z,31.73
2018-05-26T15:34:18.016Z,32.29
2018-05-26T15:35:18.203Z,32.60
2018-05-26T15:36:18.385Z,32.97
2018-05-26T15:37:18.531Z,33.31
2018-05-26T15:38:18.814Z,33.46
2018-05-26T15:39:18.942Z,33.92
2018-05-26T15:40:19.111Z,34.03
2018-05-26T15:41:19.251Z,34.01
2018-05-26T15:42:19.467Z,34.33
2018-05-26T15:43:19.632Z,34.52
2018-05-26T15:44:19.773Z,34.52
2018-05-26T15:45:19.887Z,34.57
2018-05-26T15:46:20.093Z,34.60
2018-05-26T15:47:20.269Z,34.74
2018-05-26T15:48:20.480Z,34.99
2018-05-26T15:49:20.617Z,35.17
2018-05-26T15:50:20.833Z,35.08
2018-05-26T15:51:20.993Z,34.47
2018-05-26T15:52:21.179Z,34.24
2018-05-26T15:53:21.335Z,34.13
2018-05-26T15:54:21.486Z,34.32
2018-05-26T15:55:21.693Z,34.27